KJMS

Jamestown Regional Airport

Jamestown, North Dakota, USA
KJMS 260529Z 2606/2706 23010KT P6SM BKN200 FM260700 32012KT P6SM SCT200 FM260900 34014G24KT P6SM FEW200 FM262100 31014G23KT P6SM SKC FM270100 26009KT P6SM FEW250
Issued Valid From Valid To
Apr-26 @ 05:29 UTC
(22 minutes ago)
Apr-26 @ 06:00 UTC
(in 9 minutes)
Apr-27 @ 06:00 UTC
(in 24 hours)
Apr-26 @ 06:00 to Apr-26 @ 07:00
KJMS 260529Z 2606/2706 23010KT P6SM BKN200
Wind Visibility Clouds
230° at 10 knots Greater than 6 miles
  • Broken at 20,000' AGL
From Apr-26 @ 07:00 to Apr-26 @ 09:00
FM260700 32012KT P6SM SCT200
Wind Visibility Clouds
320° at 12 knots Greater than 6 miles
  • Scattered at 20,000' AGL
From Apr-26 @ 09:00 to Apr-26 @ 21:00
FM260900 34014G24KT P6SM FEW200
Wind Visibility Clouds
340° at 14 knots
 Gusting to 24 knots
Greater than 6 miles
  • Few at 20,000' AGL
From Apr-26 @ 21:00 to Apr-27 @ 01:00
FM262100 31014G23KT P6SM SKC
Wind Visibility Clouds
310° at 14 knots
 Gusting to 23 knots
Greater than 6 miles
  • Clear skies
From Apr-27 @ 01:00 to Apr-27 @ 06:00
FM270100 26009KT P6SM FEW250
Wind Visibility Clouds
260° at 9 knots Greater than 6 miles
  • Few at 25,000' AGL
KJMS 260529Z 2606/2706 23010KT P6SM BKN200 FM260700 32012KT P6SM SCT200 FM260900 34014G24KT P6SM FEW200 FM262100 31014G23KT P6SM SKC FM270100 26009KT P6SM FEW250
Issued Apr-26 @ 05:29 UTC
(22 minutes ago)
Valid From Apr-26 @ 06:00 UTC
(in 9 minutes)
Valid To Apr-27 @ 06:00 UTC
(in 24 hours)
Apr-26 @ 06:00 - Apr-26 @ 07:00
Wind Visibility
230° at 10 knots Greater than 6 miles
Clouds
  • Broken at 20,000' AGL
From Apr-26 @ 07:00 - Apr-26 @ 09:00
Wind Visibility
320° at 12 knots Greater than 6 miles
Clouds
  • Scattered at 20,000' AGL
From Apr-26 @ 09:00 - Apr-26 @ 21:00
Wind Visibility
340° at 14 knots
 Gusting to 24 knots
Greater than 6 miles
Clouds
  • Few at 20,000' AGL
From Apr-26 @ 21:00 - Apr-27 @ 01:00
Wind Visibility
310° at 14 knots
 Gusting to 23 knots
Greater than 6 miles
Clouds
  • Clear skies
From Apr-27 @ 01:00 - Apr-27 @ 06:00
Wind Visibility
260° at 9 knots Greater than 6 miles
Clouds
  • Few at 25,000' AGL